sensor_id;sensor_type;location;lat;lon;timestamp;temperature;humidity
78289;DHT22;67539;48.752;12.922;2023-08-06T00:00:50;15.40;99.90
78289;DHT22;67539;48.752;12.922;2023-08-06T00:03:18;15.40;99.90
78289;DHT22;67539;48.752;12.922;2023-08-06T00:05:48;15.40;99.90
78289;DHT22;67539;48.752;12.922;2023-08-06T00:08:16;15.40;99.90
78289;DHT22;67539;48.752;12.922;2023-08-06T00:10:44;15.40;99.90
78289;DHT22;67539;48.752;12.922;2023-08-06T00:13:15;15.40;99.90
78289;DHT22;67539;48.752;12.922;2023-08-06T00:15:43;15.40;99.90
78289;DHT22;67539;48.752;12.922;2023-08-06T00:18:11;15.40;99.90
78289;DHT22;67539;48.752;12.922;2023-08-06T00:20:39;15.40;99.90
78289;DHT22;67539;48.752;12.922;2023-08-06T00:23:10;15.40;99.90
78289;DHT22;67539;48.752;12.922;2023-08-06T00:25:38;15.40;99.90
78289;DHT22;67539;48.752;12.922;2023-08-06T00:28:06;15.40;99.90
78289;DHT22;67539;48.752;12.922;2023-08-06T00:30:34;15.40;99.90
78289;DHT22;67539;48.752;12.922;2023-08-06T00:33:03;15.50;99.90
78289;DHT22;67539;48.752;12.922;2023-08-06T00:35:31;15.50;99.90
78289;DHT22;67539;48.752;12.922;2023-08-06T00:37:59;15.50;99.90
78289;DHT22;67539;48.752;12.922;2023-08-06T00:40:29;15.50;99.90
78289;DHT22;67539;48.752;12.922;2023-08-06T00:42:57;15.50;99.90
78289;DHT22;67539;48.752;12.922;2023-08-06T00:45:26;15.50;99.90
78289;DHT22;67539;48.752;12.922;2023-08-06T00:47:57;15.50;99.90
78289;DHT22;67539;48.752;12.922;2023-08-06T00:50:25;15.50;99.90
78289;DHT22;67539;48.752;12.922;2023-08-06T00:52:54;15.50;99.90
78289;DHT22;67539;48.752;12.922;2023-08-06T00:55:22;15.40;99.90
78289;DHT22;67539;48.752;12.922;2023-08-06T00:57:53;15.40;99.90
78289;DHT22;67539;48.752;12.922;2023-08-06T01:00:24;15.40;99.90
78289;DHT22;67539;48.752;12.922;2023-08-06T01:02:53;15.40;99.90
78289;DHT22;67539;48.752;12.922;2023-08-06T01:05:22;15.40;99.90
78289;DHT22;67539;48.752;12.922;2023-08-06T01:08:02;15.30;99.90
78289;DHT22;67539;48.752;12.922;2023-08-06T01:10:40;15.30;99.90
78289;DHT22;67539;48.752;12.922;2023-08-06T01:13:18;15.40;99.90
78289;DHT22;67539;48.752;12.922;2023-08-06T01:15:54;15.30;99.90
78289;DHT22;67539;48.752;12.922;2023-08-06T01:18:24;15.40;99.90
78289;DHT22;67539;48.752;12.922;2023-08-06T01:20:54;15.40;99.90
78289;DHT22;67539;48.752;12.922;2023-08-06T01:23:22;15.40;99.90
78289;DHT22;67539;48.752;12.922;2023-08-06T01:25:56;15.40;99.90
78289;DHT22;67539;48.752;12.922;2023-08-06T01:28:32;15.40;99.90
78289;DHT22;67539;48.752;12.922;2023-08-06T01:31:02;15.50;99.90
78289;DHT22;67539;48.752;12.922;2023-08-06T01:33:32;15.50;99.90
78289;DHT22;67539;48.752;12.922;2023-08-06T01:36:04;15.50;99.90
78289;DHT22;67539;48.752;12.922;2023-08-06T01:38:33;15.50;99.90
78289;DHT22;67539;48.752;12.922;2023-08-06T01:41:02;15.50;99.90
78289;DHT22;67539;48.752;12.922;2023-08-06T01:43:30;15.50;99.90
78289;DHT22;67539;48.752;12.922;2023-08-06T01:45:58;15.50;99.90
78289;DHT22;67539;48.752;12.922;2023-08-06T01:48:26;15.50;99.90
78289;DHT22;67539;48.752;12.922;2023-08-06T01:50:54;15.50;99.90
78289;DHT22;67539;48.752;12.922;2023-08-06T01:53:24;15.50;99.90
78289;DHT22;67539;48.752;12.922;2023-08-06T01:55:52;15.50;99.90
78289;DHT22;67539;48.752;12.922;2023-08-06T01:58:20;15.50;99.90
78289;DHT22;67539;48.752;12.922;2023-08-06T02:00:48;15.50;99.90
78289;DHT22;67539;48.752;12.922;2023-08-06T02:03:16;15.50;99.90
78289;DHT22;67539;48.752;12.922;2023-08-06T02:05:48;15.50;99.90
78289;DHT22;67539;48.752;12.922;2023-08-06T02:08:17;15.50;99.90
78289;DHT22;67539;48.752;12.922;2023-08-06T02:10:48;15.50;99.90
78289;DHT22;67539;48.752;12.922;2023-08-06T02:13:16;15.40;99.90
78289;DHT22;67539;48.752;12.922;2023-08-06T02:15:44;15.40;99.90
78289;DHT22;67539;48.752;12.922;2023-08-06T02:18:14;15.40;99.90
78289;DHT22;67539;48.752;12.922;2023-08-06T02:20:43;15.40;99.90
78289;DHT22;67539;48.752;12.922;2023-08-06T02:23:11;15.30;99.90
78289;DHT22;67539;48.752;12.922;2023-08-06T02:25:39;15.30;99.90
78289;DHT22;67539;48.752;12.922;2023-08-06T02:28:08;15.30;99.90
78289;DHT22;67539;48.752;12.922;2023-08-06T02:30:39;15.30;99.90
78289;DHT22;67539;48.752;12.922;2023-08-06T02:33:07;15.30;99.90
78289;DHT22;67539;48.752;12.922;2023-08-06T02:35:35;15.30;99.90
78289;DHT22;67539;48.752;12.922;2023-08-06T02:38:03;15.20;99.90
78289;DHT22;67539;48.752;12.922;2023-08-06T02:40:32;15.20;99.90
78289;DHT22;67539;48.752;12.922;2023-08-06T02:43:00;15.30;99.90
78289;DHT22;67539;48.752;12.922;2023-08-06T02:45:30;15.30;99.90
78289;DHT22;67539;48.752;12.922;2023-08-06T02:47:58;15.30;99.90
78289;DHT22;67539;48.752;12.922;2023-08-06T02:50:26;15.30;99.90
78289;DHT22;67539;48.752;12.922;2023-08-06T02:52:55;15.30;99.90
78289;DHT22;67539;48.752;12.922;2023-08-06T02:55:23;15.30;99.90
78289;DHT22;67539;48.752;12.922;2023-08-06T02:57:51;15.30;99.90
78289;DHT22;67539;48.752;12.922;2023-08-06T03:00:19;15.30;99.90
78289;DHT22;67539;48.752;12.922;2023-08-06T03:02:49;15.30;99.90
78289;DHT22;67539;48.752;12.922;2023-08-06T03:05:27;15.20;99.90
78289;DHT22;67539;48.752;12.922;2023-08-06T03:07:55;15.20;99.90
78289;DHT22;67539;48.752;12.922;2023-08-06T03:10:26;15.20;99.90
78289;DHT22;67539;48.752;12.922;2023-08-06T03:12:58;15.20;99.90
78289;DHT22;67539;48.752;12.922;2023-08-06T03:15:27;15.10;99.90
78289;DHT22;67539;48.752;12.922;2023-08-06T03:17:57;15.10;99.90
78289;DHT22;67539;48.752;12.922;2023-08-06T03:20:25;15.10;99.90
78289;DHT22;67539;48.752;12.922;2023-08-06T03:22:54;15.10;99.90
78289;DHT22;67539;48.752;12.922;2023-08-06T03:25:22;15.10;99.90
78289;DHT22;67539;48.752;12.922;2023-08-06T03:27:50;15.00;99.90
78289;DHT22;67539;48.752;12.922;2023-08-06T03:30:19;15.00;99.90
78289;DHT22;67539;48.752;12.922;2023-08-06T03:32:49;15.00;99.90
78289;DHT22;67539;48.752;12.922;2023-08-06T03:35:21;15.00;99.90
78289;DHT22;67539;48.752;12.922;2023-08-06T03:37:50;15.00;99.90
78289;DHT22;67539;48.752;12.922;2023-08-06T03:40:18;15.00;99.90
78289;DHT22;67539;48.752;12.922;2023-08-06T03:42:47;15.00;99.90
78289;DHT22;67539;48.752;12.922;2023-08-06T03:45:15;15.00;99.90
78289;DHT22;67539;48.752;12.922;2023-08-06T03:47:43;15.00;99.90
78289;DHT22;67539;48.752;12.922;2023-08-06T03:50:12;15.00;99.90
78289;DHT22;67539;48.752;12.922;2023-08-06T03:52:42;14.90;99.90
78289;DHT22;67539;48.752;12.922;2023-08-06T03:55:11;14.90;99.90
78289;DHT22;67539;48.752;12.922;2023-08-06T03:57:39;14.90;99.90
78289;DHT22;67539;48.752;12.922;2023-08-06T04:00:08;14.90;99.90
78289;DHT22;67539;48.752;12.922;2023-08-06T04:02:47;14.90;99.90
78289;DHT22;67539;48.752;12.922;2023-08-06T04:05:16;14.80;99.90
78289;DHT22;67539;48.752;12.922;2023-08-06T04:07:46;14.90;99.90
78289;DHT22;67539;48.752;12.922;2023-08-06T04:10:14;14.80;99.90
78289;DHT22;67539;48.752;12.922;2023-08-06T04:12:42;14.80;99.90
78289;DHT22;67539;48.752;12.922;2023-08-06T04:15:10;14.80;99.90
78289;DHT22;67539;48.752;12.922;2023-08-06T04:17:38;14.80;99.90
78289;DHT22;67539;48.752;12.922;2023-08-06T04:20:07;14.80;99.90
78289;DHT22;67539;48.752;12.922;2023-08-06T04:22:36;14.80;99.90
78289;DHT22;67539;48.752;12.922;2023-08-06T04:25:06;14.80;99.90
78289;DHT22;67539;48.752;12.922;2023-08-06T04:27:36;14.80;99.90
78289;DHT22;67539;48.752;12.922;2023-08-06T04:30:09;14.80;99.90
78289;DHT22;67539;48.752;12.922;2023-08-06T04:32:39;14.80;99.90
78289;DHT22;67539;48.752;12.922;2023-08-06T04:35:08;14.70;99.90
78289;DHT22;67539;48.752;12.922;2023-08-06T04:37:36;14.70;99.90
78289;DHT22;67539;48.752;12.922;2023-08-06T04:40:07;14.70;99.90
78289;DHT22;67539;48.752;12.922;2023-08-06T04:42:35;14.70;99.90
78289;DHT22;67539;48.752;12.922;2023-08-06T04:45:05;14.70;99.90
78289;DHT22;67539;48.752;12.922;2023-08-06T04:47:33;14.70;99.90
78289;DHT22;67539;48.752;12.922;2023-08-06T04:50:01;14.70;99.90
78289;DHT22;67539;48.752;12.922;2023-08-06T04:52:29;14.70;99.90
78289;DHT22;67539;48.752;12.922;2023-08-06T04:54:59;14.70;99.90
78289;DHT22;67539;48.752;12.922;2023-08-06T04:57:28;14.70;99.90
78289;DHT22;67539;48.752;12.922;2023-08-06T04:59:56;14.70;99.90
78289;DHT22;67539;48.752;12.922;2023-08-06T05:02:24;14.70;99.90
78289;DHT22;67539;48.752;12.922;2023-08-06T05:04:52;14.70;99.90
78289;DHT22;67539;48.752;12.922;2023-08-06T05:07:20;14.70;99.90
78289;DHT22;67539;48.752;12.922;2023-08-06T05:09:48;14.70;99.90
78289;DHT22;67539;48.752;12.922;2023-08-06T05:12:17;14.70;99.90
78289;DHT22;67539;48.752;12.922;2023-08-06T05:14:46;14.80;99.90
78289;DHT22;67539;48.752;12.922;2023-08-06T05:17:14;14.80;99.90
78289;DHT22;67539;48.752;12.922;2023-08-06T05:19:42;14.80;99.90
78289;DHT22;67539;48.752;12.922;2023-08-06T05:22:11;14.90;99.90
78289;DHT22;67539;48.752;12.922;2023-08-06T05:24:39;14.90;99.90
78289;DHT22;67539;48.752;12.922;2023-08-06T05:27:07;14.90;99.90
78289;DHT22;67539;48.752;12.922;2023-08-06T05:29:35;14.90;99.90
78289;DHT22;67539;48.752;12.922;2023-08-06T05:32:05;14.90;99.90
78289;DHT22;67539;48.752;12.922;2023-08-06T05:34:33;15.00;99.90
78289;DHT22;67539;48.752;12.922;2023-08-06T05:37:01;15.00;99.90
78289;DHT22;67539;48.752;12.922;2023-08-06T05:39:29;15.00;99.90
78289;DHT22;67539;48.752;12.922;2023-08-06T05:41:57;15.00;99.90
78289;DHT22;67539;48.752;12.922;2023-08-06T05:44:26;15.00;99.90
78289;DHT22;67539;48.752;12.922;2023-08-06T05:46:54;15.10;99.90
78289;DHT22;67539;48.752;12.922;2023-08-06T05:49:23;15.00;99.90
78289;DHT22;67539;48.752;12.922;2023-08-06T05:51:51;15.00;99.90
78289;DHT22;67539;48.752;12.922;2023-08-06T05:54:20;15.00;99.90
78289;DHT22;67539;48.752;12.922;2023-08-06T05:56:49;15.00;99.90
78289;DHT22;67539;48.752;12.922;2023-08-06T05:59:17;15.00;99.90
78289;DHT22;67539;48.752;12.922;2023-08-06T06:01:45;15.00;99.90
78289;DHT22;67539;48.752;12.922;2023-08-06T06:04:13;15.10;99.90
78289;DHT22;67539;48.752;12.922;2023-08-06T06:06:42;15.10;99.90
78289;DHT22;67539;48.752;12.922;2023-08-06T06:09:11;15.10;99.90
78289;DHT22;67539;48.752;12.922;2023-08-06T06:11:40;15.10;99.90
78289;DHT22;67539;48.752;12.922;2023-08-06T06:14:08;15.10;99.90
78289;DHT22;67539;48.752;12.922;2023-08-06T06:16:36;15.20;99.90
78289;DHT22;67539;48.752;12.922;2023-08-06T06:19:04;15.20;99.90
78289;DHT22;67539;48.752;12.922;2023-08-06T06:21:32;15.20;99.90
78289;DHT22;67539;48.752;12.922;2023-08-06T06:24:02;15.20;99.90
78289;DHT22;67539;48.752;12.922;2023-08-06T06:26:31;15.20;99.90
78289;DHT22;67539;48.752;12.922;2023-08-06T06:28:59;15.20;99.90
78289;DHT22;67539;48.752;12.922;2023-08-06T06:31:27;15.30;99.90
78289;DHT22;67539;48.752;12.922;2023-08-06T06:33:56;15.20;99.90
78289;DHT22;67539;48.752;12.922;2023-08-06T06:36:24;15.20;99.90
78289;DHT22;67539;48.752;12.922;2023-08-06T06:38:52;15.20;99.90
78289;DHT22;67539;48.752;12.922;2023-08-06T06:41:22;15.10;99.90
78289;DHT22;67539;48.752;12.922;2023-08-06T06:43:50;15.10;99.90
78289;DHT22;67539;48.752;12.922;2023-08-06T06:46:19;15.10;99.90
78289;DHT22;67539;48.752;12.922;2023-08-06T06:48:47;15.10;99.90
78289;DHT22;67539;48.752;12.922;2023-08-06T06:51:15;15.20;99.90
78289;DHT22;67539;48.752;12.922;2023-08-06T06:53:43;15.20;99.90
78289;DHT22;67539;48.752;12.922;2023-08-06T06:56:12;15.30;99.90
78289;DHT22;67539;48.752;12.922;2023-08-06T06:58:41;15.30;99.90
78289;DHT22;67539;48.752;12.922;2023-08-06T07:01:10;15.40;99.90
78289;DHT22;67539;48.752;12.922;2023-08-06T07:03:39;15.40;99.90
78289;DHT22;67539;48.752;12.922;2023-08-06T07:06:07;15.40;99.90
78289;DHT22;67539;48.752;12.922;2023-08-06T07:08:36;15.40;99.90
78289;DHT22;67539;48.752;12.922;2023-08-06T07:11:05;15.40;99.90
78289;DHT22;67539;48.752;12.922;2023-08-06T07:13:34;15.40;99.90
78289;DHT22;67539;48.752;12.922;2023-08-06T07:16:04;15.40;99.90
78289;DHT22;67539;48.752;12.922;2023-08-06T07:18:36;15.40;99.90
78289;DHT22;67539;48.752;12.922;2023-08-06T07:21:04;15.40;99.90
78289;DHT22;67539;48.752;12.922;2023-08-06T07:23:32;15.40;99.90
78289;DHT22;67539;48.752;12.922;2023-08-06T07:26:01;15.50;99.90
78289;DHT22;67539;48.752;12.922;2023-08-06T07:28:29;15.50;99.90
78289;DHT22;67539;48.752;12.922;2023-08-06T07:30:57;15.50;99.90
78289;DHT22;67539;48.752;12.922;2023-08-06T07:33:27;15.60;99.90
78289;DHT22;67539;48.752;12.922;2023-08-06T07:35:55;15.60;99.90
78289;DHT22;67539;48.752;12.922;2023-08-06T07:38:24;15.60;99.90
78289;DHT22;67539;48.752;12.922;2023-08-06T07:40:53;15.70;99.90
78289;DHT22;67539;48.752;12.922;2023-08-06T07:43:21;15.70;99.90
78289;DHT22;67539;48.752;12.922;2023-08-06T07:45:49;15.80;99.90
78289;DHT22;67539;48.752;12.922;2023-08-06T07:48:18;15.90;99.90
78289;DHT22;67539;48.752;12.922;2023-08-06T07:50:51;15.90;99.90
78289;DHT22;67539;48.752;12.922;2023-08-06T07:53:20;16.10;99.90
78289;DHT22;67539;48.752;12.922;2023-08-06T07:55:50;16.20;99.90
78289;DHT22;67539;48.752;12.922;2023-08-06T07:58:20;16.30;99.90
78289;DHT22;67539;48.752;12.922;2023-08-06T08:00:48;16.40;99.90
78289;DHT22;67539;48.752;12.922;2023-08-06T08:03:16;16.50;99.90
78289;DHT22;67539;48.752;12.922;2023-08-06T08:05:46;16.50;99.90
78289;DHT22;67539;48.752;12.922;2023-08-06T08:08:14;16.50;99.90
78289;DHT22;67539;48.752;12.922;2023-08-06T08:10:43;16.50;99.90
78289;DHT22;67539;48.752;12.922;2023-08-06T08:13:12;16.50;99.90
78289;DHT22;67539;48.752;12.922;2023-08-06T08:15:40;16.60;99.90
78289;DHT22;67539;48.752;12.922;2023-08-06T08:18:08;16.70;99.90
78289;DHT22;67539;48.752;12.922;2023-08-06T08:20:37;16.80;99.90
78289;DHT22;67539;48.752;12.922;2023-08-06T08:23:06;16.80;99.90
78289;DHT22;67539;48.752;12.922;2023-08-06T08:25:35;16.90;99.90
78289;DHT22;67539;48.752;12.922;2023-08-06T08:28:04;16.90;99.90
78289;DHT22;67539;48.752;12.922;2023-08-06T08:30:32;17.00;99.90
78289;DHT22;67539;48.752;12.922;2023-08-06T08:33:00;17.10;99.90
78289;DHT22;67539;48.752;12.922;2023-08-06T08:35:28;17.10;99.90
78289;DHT22;67539;48.752;12.922;2023-08-06T08:37:57;17.10;99.90
78289;DHT22;67539;48.752;12.922;2023-08-06T08:40:31;17.10;99.90
78289;DHT22;67539;48.752;12.922;2023-08-06T08:43:00;17.10;99.90
78289;DHT22;67539;48.752;12.922;2023-08-06T08:45:29;17.10;99.90
78289;DHT22;67539;48.752;12.922;2023-08-06T08:47:58;17.20;99.90
78289;DHT22;67539;48.752;12.922;2023-08-06T08:50:26;17.20;99.90
78289;DHT22;67539;48.752;12.922;2023-08-06T08:52:54;17.30;99.90
78289;DHT22;67539;48.752;12.922;2023-08-06T08:55:23;17.40;99.90
78289;DHT22;67539;48.752;12.922;2023-08-06T08:57:53;17.60;99.90
78289;DHT22;67539;48.752;12.922;2023-08-06T09:00:21;17.70;99.90
78289;DHT22;67539;48.752;12.922;2023-08-06T09:02:50;17.80;99.90
78289;DHT22;67539;48.752;12.922;2023-08-06T09:05:19;17.80;99.90
78289;DHT22;67539;48.752;12.922;2023-08-06T09:07:49;17.90;99.90
78289;DHT22;67539;48.752;12.922;2023-08-06T09:10:20;18.10;99.90
78289;DHT22;67539;48.752;12.922;2023-08-06T09:12:52;18.20;99.90
78289;DHT22;67539;48.752;12.922;2023-08-06T09:15:24;18.30;99.90
78289;DHT22;67539;48.752;12.922;2023-08-06T09:17:52;18.40;99.90
78289;DHT22;67539;48.752;12.922;2023-08-06T09:20:21;18.40;99.90
78289;DHT22;67539;48.752;12.922;2023-08-06T09:22:52;18.50;99.90
78289;DHT22;67539;48.752;12.922;2023-08-06T09:25:21;18.50;99.90
78289;DHT22;67539;48.752;12.922;2023-08-06T09:27:53;18.50;99.90
78289;DHT22;67539;48.752;12.922;2023-08-06T09:30:31;18.50;99.90
78289;DHT22;67539;48.752;12.922;2023-08-06T09:33:00;18.50;99.90
78289;DHT22;67539;48.752;12.922;2023-08-06T09:35:29;18.60;99.90
78289;DHT22;67539;48.752;12.922;2023-08-06T09:38:05;18.50;99.90
78289;DHT22;67539;48.752;12.922;2023-08-06T09:40:35;18.50;99.90
78289;DHT22;67539;48.752;12.922;2023-08-06T09:43:05;18.40;99.90
78289;DHT22;67539;48.752;12.922;2023-08-06T09:45:34;18.40;99.90
78289;DHT22;67539;48.752;12.922;2023-08-06T09:48:04;18.30;99.90
78289;DHT22;67539;48.752;12.922;2023-08-06T09:50:35;18.30;99.90
78289;DHT22;67539;48.752;12.922;2023-08-06T09:53:04;18.20;99.90
78289;DHT22;67539;48.752;12.922;2023-08-06T09:55:34;18.10;99.90
78289;DHT22;67539;48.752;12.922;2023-08-06T09:58:02;18.10;99.90
78289;DHT22;67539;48.752;12.922;2023-08-06T10:00:34;18.10;99.90
78289;DHT22;67539;48.752;12.922;2023-08-06T10:03:06;18.10;99.90
78289;DHT22;67539;48.752;12.922;2023-08-06T10:05:36;18.10;99.90
78289;DHT22;67539;48.752;12.922;2023-08-06T10:08:06;17.90;99.90
78289;DHT22;67539;48.752;12.922;2023-08-06T10:10:35;17.70;99.90
78289;DHT22;67539;48.752;12.922;2023-08-06T10:13:04;17.60;99.90
78289;DHT22;67539;48.752;12.922;2023-08-06T10:15:34;17.80;99.90
78289;DHT22;67539;48.752;12.922;2023-08-06T10:18:03;18.10;99.90
78289;DHT22;67539;48.752;12.922;2023-08-06T10:20:34;18.30;99.90
78289;DHT22;67539;48.752;12.922;2023-08-06T10:23:03;18.60;99.90
78289;DHT22;67539;48.752;12.922;2023-08-06T10:25:32;18.80;99.90
78289;DHT22;67539;48.752;12.922;2023-08-06T10:28:06;18.90;99.90
78289;DHT22;67539;48.752;12.922;2023-08-06T10:30:41;18.90;99.90
78289;DHT22;67539;48.752;12.922;2023-08-06T10:33:10;18.80;99.90
78289;DHT22;67539;48.752;12.922;2023-08-06T10:35:41;18.70;99.90
78289;DHT22;67539;48.752;12.922;2023-08-06T10:38:13;18.70;99.90
78289;DHT22;67539;48.752;12.922;2023-08-06T10:40:52;18.80;99.90
78289;DHT22;67539;48.752;12.922;2023-08-06T10:43:29;18.90;99.90
78289;DHT22;67539;48.752;12.922;2023-08-06T11:46:54;17.60;99.90
78289;DHT22;67539;48.752;12.922;2023-08-06T11:49:38;17.70;99.90
78289;DHT22;67539;48.752;12.922;2023-08-06T11:52:12;17.70;99.90
78289;DHT22;67539;48.752;12.922;2023-08-06T11:54:41;17.50;99.90
78289;DHT22;67539;48.752;12.922;2023-08-06T11:57:11;16.30;99.90
78289;DHT22;67539;48.752;12.922;2023-08-06T11:59:41;15.50;99.90
78289;DHT22;67539;48.752;12.922;2023-08-06T12:02:11;15.20;99.90
78289;DHT22;67539;48.752;12.922;2023-08-06T12:05:01;15.00;99.90
78289;DHT22;67539;48.752;12.922;2023-08-06T12:07:32;14.90;99.90
78289;DHT22;67539;48.752;12.922;2023-08-06T12:10:01;15.00;99.90
78289;DHT22;67539;48.752;12.922;2023-08-06T12:12:29;15.10;99.90
78289;DHT22;67539;48.752;12.922;2023-08-06T12:14:57;15.00;99.90
78289;DHT22;67539;48.752;12.922;2023-08-06T12:17:27;15.10;99.90
78289;DHT22;67539;48.752;12.922;2023-08-06T12:19:55;15.10;99.90
78289;DHT22;67539;48.752;12.922;2023-08-06T12:22:24;15.20;99.90
78289;DHT22;67539;48.752;12.922;2023-08-06T12:24:52;15.20;99.90
78289;DHT22;67539;48.752;12.922;2023-08-06T12:27:20;15.30;99.90
78289;DHT22;67539;48.752;12.922;2023-08-06T12:29:48;15.30;99.90
78289;DHT22;67539;48.752;12.922;2023-08-06T12:32:17;15.30;99.90
78289;DHT22;67539;48.752;12.922;2023-08-06T12:34:47;15.20;99.90
78289;DHT22;67539;48.752;12.922;2023-08-06T12:37:19;15.20;99.90
78289;DHT22;67539;48.752;12.922;2023-08-06T12:39:47;15.20;99.90
78289;DHT22;67539;48.752;12.922;2023-08-06T12:42:16;15.20;99.90
78289;DHT22;67539;48.752;12.922;2023-08-06T12:44:44;15.40;99.90
78289;DHT22;67539;48.752;12.922;2023-08-06T12:47:13;15.50;99.90
78289;DHT22;67539;48.752;12.922;2023-08-06T12:49:41;15.60;99.90
78289;DHT22;67539;48.752;12.922;2023-08-06T12:52:10;15.80;99.90
78289;DHT22;67539;48.752;12.922;2023-08-06T12:54:42;15.80;99.90
78289;DHT22;67539;48.752;12.922;2023-08-06T12:57:10;15.60;99.90
78289;DHT22;67539;48.752;12.922;2023-08-06T12:59:39;15.50;99.90
78289;DHT22;67539;48.752;12.922;2023-08-06T13:02:07;15.40;99.90
78289;DHT22;67539;48.752;12.922;2023-08-06T13:04:36;15.40;99.90
78289;DHT22;67539;48.752;12.922;2023-08-06T13:07:04;15.50;99.90
78289;DHT22;67539;48.752;12.922;2023-08-06T13:09:35;15.40;99.90
78289;DHT22;67539;48.752;12.922;2023-08-06T13:12:04;15.40;99.90
78289;DHT22;67539;48.752;12.922;2023-08-06T13:14:33;15.40;99.90
78289;DHT22;67539;48.752;12.922;2023-08-06T13:17:01;15.40;99.90
78289;DHT22;67539;48.752;12.922;2023-08-06T13:19:33;15.40;99.90
78289;DHT22;67539;48.752;12.922;2023-08-06T13:22:03;15.20;99.90
78289;DHT22;67539;48.752;12.922;2023-08-06T13:24:35;15.10;99.90
78289;DHT22;67539;48.752;12.922;2023-08-06T13:27:03;14.90;99.90
78289;DHT22;67539;48.752;12.922;2023-08-06T13:29:32;14.80;99.90
78289;DHT22;67539;48.752;12.922;2023-08-06T13:32:00;14.70;99.90
78289;DHT22;67539;48.752;12.922;2023-08-06T13:34:28;14.60;99.90
78289;DHT22;67539;48.752;12.922;2023-08-06T13:36:56;14.60;99.90
78289;DHT22;67539;48.752;12.922;2023-08-06T13:39:25;14.70;99.90
78289;DHT22;67539;48.752;12.922;2023-08-06T13:41:54;14.70;99.90
78289;DHT22;67539;48.752;12.922;2023-08-06T13:44:23;14.80;99.90
78289;DHT22;67539;48.752;12.922;2023-08-06T13:46:51;14.90;99.90
78289;DHT22;67539;48.752;12.922;2023-08-06T13:49:20;15.10;99.90
78289;DHT22;67539;48.752;12.922;2023-08-06T13:51:48;15.20;99.90
78289;DHT22;67539;48.752;12.922;2023-08-06T13:54:16;15.50;99.90
78289;DHT22;67539;48.752;12.922;2023-08-06T13:56:45;15.80;99.90
78289;DHT22;67539;48.752;12.922;2023-08-06T13:59:14;16.20;99.90
78289;DHT22;67539;48.752;12.922;2023-08-06T14:01:43;16.40;99.90
78289;DHT22;67539;48.752;12.922;2023-08-06T14:04:18;16.60;99.90
78289;DHT22;67539;48.752;12.922;2023-08-06T14:06:48;16.80;99.90
78289;DHT22;67539;48.752;12.922;2023-08-06T14:09:16;16.90;99.90
78289;DHT22;67539;48.752;12.922;2023-08-06T14:11:46;17.10;99.90
78289;DHT22;67539;48.752;12.922;2023-08-06T14:14:15;17.10;99.90
78289;DHT22;67539;48.752;12.922;2023-08-06T14:16:43;17.00;99.90
78289;DHT22;67539;48.752;12.922;2023-08-06T14:19:12;16.90;99.90
78289;DHT22;67539;48.752;12.922;2023-08-06T14:21:40;16.90;99.90
78289;DHT22;67539;48.752;12.922;2023-08-06T14:24:08;16.90;99.90
78289;DHT22;67539;48.752;12.922;2023-08-06T14:26:37;16.90;99.90
78289;DHT22;67539;48.752;12.922;2023-08-06T14:29:05;16.90;99.90
78289;DHT22;67539;48.752;12.922;2023-08-06T14:31:35;16.90;99.90
78289;DHT22;67539;48.752;12.922;2023-08-06T14:34:03;17.00;99.90
78289;DHT22;67539;48.752;12.922;2023-08-06T14:36:31;17.00;99.90
78289;DHT22;67539;48.752;12.922;2023-08-06T14:39:00;17.00;99.90
78289;DHT22;67539;48.752;12.922;2023-08-06T14:41:28;17.10;99.90
78289;DHT22;67539;48.752;12.922;2023-08-06T14:43:56;17.10;99.90
78289;DHT22;67539;48.752;12.922;2023-08-06T14:46:25;17.00;99.90
78289;DHT22;67539;48.752;12.922;2023-08-06T14:48:55;17.00;99.90
78289;DHT22;67539;48.752;12.922;2023-08-06T14:51:23;17.40;99.90
78289;DHT22;67539;48.752;12.922;2023-08-06T14:53:51;17.80;99.90
78289;DHT22;67539;48.752;12.922;2023-08-06T14:56:20;17.70;99.90
78289;DHT22;67539;48.752;12.922;2023-08-06T14:58:48;17.60;99.90
78289;DHT22;67539;48.752;12.922;2023-08-06T15:01:16;17.40;99.90
78289;DHT22;67539;48.752;12.922;2023-08-06T15:03:45;17.30;99.90
78289;DHT22;67539;48.752;12.922;2023-08-06T15:06:14;17.20;99.90
78289;DHT22;67539;48.752;12.922;2023-08-06T15:08:43;17.10;99.90
78289;DHT22;67539;48.752;12.922;2023-08-06T15:11:14;17.10;99.90
78289;DHT22;67539;48.752;12.922;2023-08-06T15:13:42;17.10;99.90
78289;DHT22;67539;48.752;12.922;2023-08-06T15:16:11;17.00;99.90
78289;DHT22;67539;48.752;12.922;2023-08-06T15:18:39;16.90;99.90
78289;DHT22;67539;48.752;12.922;2023-08-06T15:21:07;16.60;99.90
78289;DHT22;67539;48.752;12.922;2023-08-06T15:23:37;15.20;99.90
78289;DHT22;67539;48.752;12.922;2023-08-06T15:26:05;14.20;99.90
78289;DHT22;67539;48.752;12.922;2023-08-06T15:28:33;13.80;99.90
78289;DHT22;67539;48.752;12.922;2023-08-06T15:31:01;13.60;99.90
78289;DHT22;67539;48.752;12.922;2023-08-06T15:33:31;13.70;99.90
78289;DHT22;67539;48.752;12.922;2023-08-06T15:36:00;13.70;99.90
78289;DHT22;67539;48.752;12.922;2023-08-06T15:38:28;13.70;99.90
78289;DHT22;67539;48.752;12.922;2023-08-06T15:40:57;13.70;99.90
78289;DHT22;67539;48.752;12.922;2023-08-06T15:43:25;13.60;99.90
78289;DHT22;67539;48.752;12.922;2023-08-06T15:45:53;13.40;99.90
78289;DHT22;67539;48.752;12.922;2023-08-06T15:48:22;13.30;99.90
78289;DHT22;67539;48.752;12.922;2023-08-06T15:50:50;13.20;99.90
78289;DHT22;67539;48.752;12.922;2023-08-06T15:53:19;13.20;99.90
78289;DHT22;67539;48.752;12.922;2023-08-06T15:55:48;13.20;99.90
78289;DHT22;67539;48.752;12.922;2023-08-06T15:58:17;13.20;99.90
78289;DHT22;67539;48.752;12.922;2023-08-06T16:00:46;13.20;99.90
78289;DHT22;67539;48.752;12.922;2023-08-06T16:03:14;13.20;99.90
78289;DHT22;67539;48.752;12.922;2023-08-06T16:05:43;13.20;99.90
78289;DHT22;67539;48.752;12.922;2023-08-06T16:08:11;13.30;99.90
78289;DHT22;67539;48.752;12.922;2023-08-06T16:10:40;13.40;99.90
78289;DHT22;67539;48.752;12.922;2023-08-06T16:13:11;13.40;99.90
78289;DHT22;67539;48.752;12.922;2023-08-06T16:15:41;13.50;99.90
78289;DHT22;67539;48.752;12.922;2023-08-06T16:18:09;13.40;99.90
78289;DHT22;67539;48.752;12.922;2023-08-06T16:20:41;13.50;99.90
78289;DHT22;67539;48.752;12.922;2023-08-06T16:23:10;13.40;99.90
78289;DHT22;67539;48.752;12.922;2023-08-06T16:25:38;13.40;99.90
78289;DHT22;67539;48.752;12.922;2023-08-06T16:28:06;13.30;99.90